Time;durP1;ratioP1;P1;durP2;ratioP2;P2;SDS_P1;SDS_P2;PMS_P1;PMS_P2;Temp;Humidity;BMP_temperature;BMP_pressure;BME280_temperature;BME280_humidity;BME280_pressure;Samples;Min_cycle;Max_cycle;Signal;HPM_P1;HPM_P2
2021/03/24 00:00:38;;;;;;;50.38;31.75;;;7.50;97.50;;;;;;5072280;28;20065;-67
2021/03/24 00:03:23;;;;;;;47.30;30.52;;;7.40;97.50;;;;;;5085036;28;20074;-67
2021/03/24 00:06:10;;;;;;;52.00;33.63;;;7.20;96.90;;;;;;5071305;28;20051;-67
2021/03/24 00:08:56;;;;;;;48.58;32.72;;;7.10;97.70;;;;;;5085241;28;20044;-67
2021/03/24 00:11:42;;;;;;;51.25;32.20;;;7.00;97.60;;;;;;5072691;28;20040;-67
2021/03/24 00:14:28;;;;;;;50.38;33.28;;;6.90;97.50;;;;;;5081028;28;20044;-67
2021/03/24 00:17:13;;;;;;;50.05;32.17;;;6.70;98.10;;;;;;5085342;28;20052;-67
2021/03/24 00:19:59;;;;;;;48.25;32.63;;;6.70;98.50;;;;;;5079282;28;20256;-67
2021/03/24 00:22:45;;;;;;;50.35;33.80;;;6.60;98.10;;;;;;5082308;28;20052;-67
2021/03/24 00:25:31;;;;;;;50.65;34.15;;;6.60;98.50;;;;;;5084488;28;20492;-67
2021/03/24 00:28:17;;;;;;;50.00;33.38;;;6.60;98.70;;;;;;5072265;28;20053;-67
2021/03/24 00:31:02;;;;;;;49.80;33.25;;;6.70;98.90;;;;;;5084713;28;20044;-67
2021/03/24 00:33:49;;;;;;;52.70;33.88;;;6.70;99.00;;;;;;5084753;28;20045;-67
2021/03/24 00:36:35;;;;;;;53.30;34.95;;;6.70;99.20;;;;;;5072767;28;20062;-67
2021/03/24 00:39:21;;;;;;;52.15;34.30;;;6.80;99.10;;;;;;5071188;28;20060;-67
2021/03/24 00:42:07;;;;;;;56.83;35.38;;;6.80;98.70;;;;;;5085498;28;20048;-67
2021/03/24 00:44:53;;;;;;;50.80;34.28;;;6.90;98.40;;;;;;5077584;28;20049;-67
2021/03/24 00:47:39;;;;;;;57.38;36.53;;;7.10;98.10;;;;;;5084929;28;20512;-67
2021/03/24 00:50:27;;;;;;;53.92;35.10;;;7.10;97.90;;;;;;5084341;28;20059;-67
2021/03/24 00:53:13;;;;;;;53.40;34.65;;;7.10;98.00;;;;;;5084553;28;20044;-67
2021/03/24 00:55:58;;;;;;;53.30;35.38;;;7.10;97.90;;;;;;5083949;28;20044;-67
2021/03/24 00:58:44;;;;;;;51.33;34.05;;;7.00;97.90;;;;;;5083953;28;20493;-67
2021/03/24 01:01:30;;;;;;;52.63;33.58;;;7.00;97.60;;;;;;5084269;28;20048;-67
2021/03/24 01:04:17;;;;;;;52.50;34.05;;;6.80;97.50;;;;;;5070952;28;20135;-67
2021/03/24 01:07:04;;;;;;;47.67;31.05;;;6.80;97.90;;;;;;5083765;28;20052;-67
2021/03/24 01:09:50;;;;;;;48.40;33.28;;;6.80;97.90;;;;;;5084289;28;20221;-67
2021/03/24 01:12:36;;;;;;;54.40;34.13;;;6.70;97.10;;;;;;5072611;28;20507;-66
2021/03/24 01:15:22;;;;;;;45.15;31.20;;;6.60;97.50;;;;;;5083817;28;20135;-67
2021/03/24 01:18:08;;;;;;;51.92;33.78;;;6.50;97.80;;;;;;5084207;28;20044;-67
2021/03/24 01:20:54;;;;;;;52.58;34.30;;;6.60;98.00;;;;;;5073120;28;20040;-67
2021/03/24 01:23:40;;;;;;;58.65;35.00;;;6.60;98.00;;;;;;5083685;28;20076;-67
2021/03/24 01:26:26;;;;;;;53.58;35.80;;;7.00;97.30;;;;;;5084149;28;20454;-67
2021/03/24 01:29:12;;;;;;;55.42;37.60;;;7.10;96.80;;;;;;5083771;28;20060;-67
2021/03/24 01:31:58;;;;;;;60.67;37.70;;;7.10;96.80;;;;;;5083394;28;20044;-67
2021/03/24 01:34:44;;;;;;;60.00;36.10;;;7.00;96.90;;;;;;5084755;28;20048;-67
2021/03/24 01:37:30;;;;;;;67.22;40.63;;;6.90;96.80;;;;;;5071378;28;20052;-67
2021/03/24 01:40:28;;;;;;;66.20;40.83;;;6.70;97.20;;;;;;5085005;28;20055;-67
2021/03/24 01:43:30;;;;;;;61.63;39.80;;;6.60;97.60;;;;;;5083615;28;20143;-67
2021/03/24 01:46:19;;;;;;;64.00;41.03;;;6.50;97.70;;;;;;5063254;28;20109;-66
2021/03/24 01:49:19;;;;;;;66.18;40.92;;;6.40;98.00;;;;;;5071088;28;20416;-67
2021/03/24 01:52:09;;;;;;;70.85;44.47;;;6.20;98.30;;;;;;5083590;28;20056;-67
2021/03/24 01:54:55;;;;;;;67.07;41.72;;;6.10;98.80;;;;;;5083527;28;20048;-67
2021/03/24 01:57:46;;;;;;;68.72;43.30;;;6.10;98.80;;;;;;5084179;28;20052;-67
2021/03/24 02:00:42;;;;;;;68.70;43.15;;;6.10;98.80;;;;;;5071287;28;20055;-67
2021/03/24 02:03:31;;;;;;;69.22;43.75;;;6.00;99.00;;;;;;5084204;28;20512;-67
2021/03/24 02:06:54;;;;;;;71.80;41.85;;;6.00;99.20;;;;;;5087287;28;20044;-67
2021/03/24 02:09:46;;;;;;;72.10;43.35;;;5.90;99.30;;;;;;5087205;28;20529;-67
2021/03/24 02:12:42;;;;;;;69.10;43.65;;;5.80;99.50;;;;;;5087401;28;20135;-67
2021/03/24 02:15:32;;;;;;;72.32;42.05;;;5.70;99.60;;;;;;5076420;28;20048;-67
2021/03/24 02:18:22;;;;;;;71.57;42.45;;;5.70;99.80;;;;;;5087155;28;20044;-67
2021/03/24 02:21:12;;;;;;;74.70;43.25;;;5.70;99.80;;;;;;5073322;28;20048;-67
2021/03/24 02:24:20;;;;;;;70.75;42.20;;;5.60;99.90;;;;;;5087282;28;20061;-67
2021/03/24 02:27:19;;;;;;;72.07;42.88;;;5.60;99.90;;;;;;5085265;28;20049;-67
2021/03/24 02:30:23;;;;;;;70.85;42.97;;;5.50;99.90;;;;;;5075196;28;20052;-67
2021/03/24 02:33:32;;;;;;;72.85;44.10;;;5.50;99.90;;;;;;5086786;28;20412;-67
2021/03/24 02:36:20;;;;;;;76.95;44.22;;;5.40;99.90;;;;;;5086689;28;20060;-68
2021/03/24 02:39:10;;;;;;;72.65;43.85;;;5.40;99.90;;;;;;5086972;28;20112;-67
2021/03/24 02:41:59;;;;;;;74.18;44.38;;;5.40;99.90;;;;;;5087967;28;20052;-67
2021/03/24 02:44:45;;;;;;;69.45;42.58;;;5.40;99.90;;;;;;5087662;28;20068;-67
2021/03/24 02:47:31;;;;;;;81.82;42.58;;;5.30;99.90;;;;;;5083620;28;20780;-67
2021/03/24 02:50:20;;;;;;;67.45;40.22;;;5.30;99.90;;;;;;5086739;28;20435;-67
2021/03/24 02:53:07;;;;;;;68.63;42.13;;;5.10;99.80;;;;;;5075038;28;20108;-67
2021/03/24 02:55:56;;;;;;;75.07;44.03;;;5.10;99.90;;;;;;5086425;28;20341;-67
2021/03/24 02:58:42;;;;;;;74.63;41.65;;;5.00;99.90;;;;;;5086057;28;20040;-67
2021/03/24 03:01:53;;;;;;;59.83;35.20;;;4.90;99.90;;;;;;5086477;28;20047;-67
2021/03/24 03:04:48;;;;;;;65.63;40.42;;;4.80;99.20;;;;;;5089245;28;20040;-67
2021/03/24 03:07:42;;;;;;;64.28;38.53;;;4.60;99.40;;;;;;5085950;28;20054;-67
2021/03/24 03:11:05;;;;;;;74.35;43.28;;;4.60;99.90;;;;;;5087347;28;20044;-67
2021/03/24 03:14:05;;;;;;;64.25;38.03;;;4.60;99.90;;;;;;5050929;28;20063;-67
2021/03/24 03:16:56;;;;;;;56.50;35.85;;;4.60;99.90;;;;;;5058840;28;20128;-68
2021/03/24 03:19:56;;;;;;;62.97;37.22;;;4.50;99.90;;;;;;5045634;28;20072;-67
2021/03/24 03:22:47;;;;;;;59.05;36.50;;;4.30;99.50;;;;;;5063319;28;20060;-67
2021/03/24 03:25:41;;;;;;;70.35;42.75;;;4.30;99.90;;;;;;5051861;28;20045;-67
2021/03/24 03:28:29;;;;;;;73.82;42.25;;;4.30;99.90;;;;;;5051323;28;20113;-67
2021/03/24 03:31:18;;;;;;;70.88;41.80;;;4.30;99.90;;;;;;5038384;28;20441;-67
2021/03/24 03:34:08;;;;;;;67.47;38.72;;;4.40;99.90;;;;;;5050846;28;20086;-67
2021/03/24 03:36:56;;;;;;;68.40;40.58;;;4.40;99.90;;;;;;5050201;28;20056;-67
2021/03/24 03:39:45;;;;;;;67.65;40.50;;;4.30;99.90;;;;;;5044617;28;20092;-67
2021/03/24 03:42:32;;;;;;;66.72;39.38;;;4.30;99.90;;;;;;5049900;28;20049;-67
2021/03/24 03:45:18;;;;;;;52.78;34.85;;;4.30;99.90;;;;;;5050257;28;20057;-67
2021/03/24 03:48:05;;;;;;;51.40;32.10;;;4.20;99.90;;;;;;5051904;28;20120;-67
2021/03/24 03:51:01;;;;;;;75.72;43.78;;;4.10;99.50;;;;;;5085591;28;20045;-67
2021/03/24 03:53:59;;;;;;;59.00;33.58;;;4.10;99.90;;;;;;5085300;28;20044;-67
2021/03/24 03:56:56;;;;;;;60.95;34.88;;;4.00;99.70;;;;;;5085459;28;20072;-67
2021/03/24 03:59:54;;;;;;;56.20;34.72;;;3.70;99.20;;;;;;5085194;28;20082;-67
2021/03/24 04:02:50;;;;;;;82.25;46.38;;;3.60;99.20;;;;;;5085147;28;20056;-67
2021/03/24 04:05:43;;;;;;;85.05;47.38;;;3.80;99.90;;;;;;5069276;28;20048;-67
2021/03/24 04:08:34;;;;;;;89.47;47.90;;;3.90;99.90;;;;;;5081593;28;20408;-67
2021/03/24 04:11:22;;;;;;;88.57;48.22;;;4.00;99.90;;;;;;5079442;28;20050;-67
2021/03/24 04:14:11;;;;;;;90.90;47.20;;;4.10;99.90;;;;;;5088382;28;20087;-67
2021/03/24 04:16:56;;;;;;;88.43;50.22;;;4.30;99.90;;;;;;5085325;28;20485;-67
2021/03/24 04:19:47;;;;;;;72.57;42.10;;;4.30;99.90;;;;;;5085915;28;20057;-67
2021/03/24 04:22:34;;;;;;;55.40;34.03;;;4.10;99.90;;;;;;5085617;28;20056;-67
2021/03/24 04:25:26;;;;;;;51.65;31.77;;;3.90;99.50;;;;;;5081253;28;20059;-67
2021/03/24 04:28:16;;;;;;;53.30;32.25;;;3.60;98.50;;;;;;5085466;28;20036;-67
2021/03/24 04:31:06;;;;;;;54.75;32.83;;;3.30;98.40;;;;;;5085503;28;20091;-67
2021/03/24 04:33:53;;;;;;;49.60;30.33;;;3.10;98.40;;;;;;5084679;28;20118;-67
2021/03/24 04:36:43;;;;;;;53.17;31.55;;;2.80;98.40;;;;;;5070625;28;20053;-67
2021/03/24 04:39:45;;;;;;;63.63;35.95;;;2.90;99.30;;;;;;5070682;28;20053;-67
2021/03/24 04:42:47;;;;;;;73.75;40.08;;;2.90;99.90;;;;;;5074432;28;20107;-67
2021/03/24 04:45:41;;;;;;;94.63;49.08;;;3.10;99.90;;;;;;5083624;28;20104;-67
2021/03/24 04:48:40;;;;;;;91.50;47.95;;;3.20;99.90;;;;;;5085015;28;20599;-67
2021/03/24 04:51:29;;;;;;;88.20;48.05;;;3.30;99.90;;;;;;5085130;28;20049;-67
2021/03/24 04:54:27;;;;;;;83.17;45.87;;;3.50;99.90;;;;;;5084138;28;20110;-67
2021/03/24 04:57:18;;;;;;;88.00;48.28;;;3.70;99.90;;;;;;5061434;28;20048;-67
2021/03/24 05:00:12;;;;;;;83.25;45.17;;;3.80;99.90;;;;;;5071174;28;20105;-67
2021/03/24 05:03:05;;;;;;;98.60;51.50;;;3.90;99.90;;;;;;5085044;28;20094;-67
2021/03/24 05:06:00;;;;;;;105.38;53.30;;;4.00;99.90;;;;;;5084999;28;20051;-67
2021/03/24 05:08:46;;;;;;;99.38;52.40;;;4.10;99.90;;;;;;5074335;28;20108;-67
2021/03/24 05:12:00;;;;;;;102.25;54.08;;;4.20;99.90;;;;;;5083716;28;20048;-67
2021/03/24 05:15:11;;;;;;;104.97;53.92;;;4.30;99.90;;;;;;5070667;28;20131;-67
2021/03/24 05:18:00;;;;;;;105.28;54.70;;;4.40;99.90;;;;;;5083701;28;20055;-67
2021/03/24 05:21:08;;;;;;;103.43;55.65;;;4.40;99.90;;;;;;5083752;28;20488;-67
2021/03/24 05:23:57;;;;;;;110.22;55.53;;;4.40;99.90;;;;;;5084680;28;20047;-68
2021/03/24 05:26:53;;;;;;;104.97;52.90;;;4.40;99.90;;;;;;5077006;28;20051;-67
2021/03/24 05:29:50;;;;;;;108.28;54.55;;;4.50;99.90;;;;;;5070665;28;20279;-67
2021/03/24 05:32:41;;;;;;;105.53;54.55;;;4.50;99.90;;;;;;5070289;28;20079;-67
2021/03/24 05:35:36;;;;;;;109.45;55.47;;;4.50;99.90;;;;;;5085355;28;20051;-67
2021/03/24 05:38:30;;;;;;;104.05;55.75;;;4.50;99.90;;;;;;5074227;28;20048;-67
2021/03/24 05:41:30;;;;;;;117.20;57.65;;;4.40;99.90;;;;;;5082478;28;20040;-67
2021/03/24 05:44:49;;;;;;;113.90;56.22;;;4.40;99.90;;;;;;5095400;28;20512;-67
2021/03/24 05:47:50;;;;;;;114.50;58.75;;;4.40;99.90;;;;;;5082921;28;20088;-67
2021/03/24 05:51:23;;;;;;;120.60;56.75;;;4.50;99.90;;;;;;5082796;28;20048;-67
2021/03/24 05:54:28;;;;;;;120.07;59.67;;;4.40;99.90;;;;;;5082229;28;20163;-66
2021/03/24 05:57:29;;;;;;;120.35;60.35;;;4.50;99.90;;;;;;5079916;28;20051;-66
2021/03/24 06:00:45;;;;;;;116.05;59.25;;;4.50;99.90;;;;;;5083618;28;20051;-66
2021/03/24 06:03:47;;;;;;;120.53;57.90;;;4.50;99.90;;;;;;5097479;28;20049;-66
2021/03/24 06:06:54;;;;;;;130.70;61.67;;;4.50;99.90;;;;;;5081835;28;20044;-66
2021/03/24 06:09:59;;;;;;;117.40;59.58;;;4.60;99.90;;;;;;5082616;28;20051;-67
2021/03/24 06:13:08;;;;;;;124.80;59.97;;;4.60;99.90;;;;;;5080707;28;20048;-67
2021/03/24 06:16:16;;;;;;;118.90;58.05;;;4.60;99.90;;;;;;5081815;28;20549;-66
2021/03/24 06:19:45;;;;;;;130.90;60.03;;;4.60;99.90;;;;;;5095453;28;20072;-67
2021/03/24 06:22:49;;;;;;;118.40;56.08;;;4.60;99.90;;;;;;5081711;28;20649;-68
2021/03/24 06:25:46;;;;;;;120.13;58.00;;;4.70;99.90;;;;;;5078963;28;20076;-67
2021/03/24 06:28:39;;;;;;;123.72;58.97;;;4.60;99.90;;;;;;5084994;28;20039;-67
2021/03/24 06:32:00;;;;;;;122.80;60.47;;;4.70;99.90;;;;;;5085872;28;20057;-68
2021/03/24 06:35:15;;;;;;;116.28;58.28;;;4.70;99.90;;;;;;5029302;28;20125;-68
2021/03/24 06:38:39;;;;;;;128.20;60.03;;;4.80;99.90;;;;;;5030369;28;20529;-68
2021/03/24 06:41:44;;;;;;;121.80;56.67;;;4.90;99.90;;;;;;5026460;28;20049;-68
2021/03/24 06:44:50;;;;;;;121.18;56.63;;;4.90;99.90;;;;;;5025504;28;20046;-68
2021/03/24 06:47:45;;;;;;;125.63;60.90;;;4.90;99.90;;;;;;5025199;28;20047;-68
2021/03/24 06:51:04;;;;;;;126.85;60.65;;;5.00;99.90;;;;;;5030090;28;20050;-67
2021/03/24 06:54:01;;;;;;;122.72;58.40;;;5.10;99.90;;;;;;5030383;28;20053;-67
2021/03/24 06:57:48;;;;;;;121.95;60.38;;;5.20;99.90;;;;;;4983038;28;20200;-68
2021/03/24 07:01:00;;;;;;;122.00;58.92;;;5.30;99.90;;;;;;4997416;28;20054;-67
2021/03/24 07:04:33;;;;;;;121.03;58.28;;;5.30;99.90;;;;;;4984030;28;20049;-67
2021/03/24 07:07:37;;;;;;;128.40;61.30;;;5.50;99.90;;;;;;4951447;28;20051;-68
2021/03/24 07:10:58;;;;;;;124.47;61.55;;;5.50;99.90;;;;;;4964651;28;20066;-68
2021/03/24 07:14:17;;;;;;;124.15;59.22;;;5.50;99.90;;;;;;4987873;28;20062;-68
2021/03/24 07:17:21;;;;;;;112.90;58.17;;;5.60;99.90;;;;;;5002660;28;20473;-68
2021/03/24 07:20:44;;;;;;;119.35;61.40;;;5.70;99.90;;;;;;4978331;28;20046;-68
2021/03/24 07:23:36;;;;;;;117.40;57.22;;;5.70;99.90;;;;;;4993181;28;20411;-67
2021/03/24 07:26:49;;;;;;;115.30;60.25;;;5.90;99.90;;;;;;5001866;28;20085;-67
2021/03/24 07:29:56;;;;;;;118.43;62.92;;;6.00;99.90;;;;;;4986286;28;20061;-67
2021/03/24 07:32:50;;;;;;;119.05;63.78;;;6.00;99.90;;;;;;5007092;28;20058;-68
2021/03/24 07:36:01;;;;;;;115.82;61.70;;;6.10;99.90;;;;;;4999350;28;20200;-68
2021/03/24 07:39:12;;;;;;;117.80;64.68;;;6.20;99.90;;;;;;4988522;28;20042;-68
2021/03/24 07:42:30;;;;;;;113.00;58.80;;;6.20;99.90;;;;;;5079733;28;20407;-67
2021/03/24 07:45:55;;;;;;;117.90;61.72;;;6.20;99.90;;;;;;5055752;28;20036;-67
2021/03/24 07:49:08;;;;;;;114.68;61.65;;;6.40;99.90;;;;;;5044898;28;20052;-67
2021/03/24 07:51:59;;;;;;;116.43;62.58;;;6.50;99.90;;;;;;5072599;28;20031;-67
2021/03/24 07:55:09;;;;;;;122.85;62.13;;;6.50;99.90;;;;;;5066540;28;20036;-67
2021/03/24 07:58:19;;;;;;;113.75;62.67;;;6.60;99.90;;;;;;5075437;28;20063;-67
2021/03/24 08:01:43;;;;;;;118.32;62.53;;;6.70;99.90;;;;;;5081739;28;20052;-67
2021/03/24 08:04:40;;;;;;;105.80;55.97;;;6.80;99.90;;;;;;5062487;28;20059;-67
2021/03/24 08:07:42;;;;;;;108.57;60.17;;;6.90;99.90;;;;;;5068887;28;20099;-67
2021/03/24 08:10:36;;;;;;;105.07;59.40;;;7.00;99.90;;;;;;5071060;28;20547;-67
2021/03/24 08:13:39;;;;;;;109.25;59.95;;;7.10;99.90;;;;;;5072489;28;20101;-67
2021/03/24 08:16:31;;;;;;;108.13;58.70;;;7.20;99.90;;;;;;5070231;28;20051;-67
2021/03/24 08:19:28;;;;;;;100.05;57.70;;;7.30;99.90;;;;;;5072051;28;20120;-67
2021/03/24 08:22:20;;;;;;;99.25;57.42;;;7.30;99.90;;;;;;5097771;28;20051;-68
2021/03/24 08:25:08;;;;;;;99.50;58.10;;;7.40;99.90;;;;;;5055803;28;20052;-67
2021/03/24 08:27:47;;;;;;;103.38;59.80;;;7.50;99.90;;;;;;5070359;28;20071;-67
2021/03/24 08:30:29;;;;;;;95.53;54.60;;;7.60;99.90;;;;;;5096796;28;20046;-67
2021/03/24 08:33:31;;;;;;;97.78;55.92;;;7.60;99.90;;;;;;5057870;28;20111;-67
2021/03/24 08:36:20;;;;;;;97.45;56.28;;;7.60;99.90;;;;;;5083205;28;20048;-68
2021/03/24 08:39:21;;;;;;;93.32;52.25;;;7.80;99.90;;;;;;5069366;28;20349;-67
2021/03/24 08:42:15;;;;;;;87.80;53.38;;;8.00;99.20;;;;;;5028907;28;20100;-67
2021/03/24 08:44:59;;;;;;;90.50;50.92;;;8.00;98.50;;;;;;5014692;28;20049;-67
2021/03/24 08:47:33;;;;;;;90.53;52.75;;;8.00;98.60;;;;;;5035723;28;20050;-77
2021/03/24 08:50:01;;;;;;;88.20;51.60;;;8.00;98.80;;;;;;5023880;28;20331;-79
2021/03/24 08:52:44;;;;;;;87.85;51.47;;;8.20;98.70;;;;;;5028234;28;20060;-82
2021/03/24 08:55:22;;;;;;;90.65;54.28;;;8.20;98.30;;;;;;5034411;28;20061;-80
2021/03/24 08:58:12;;;;;;;83.97;49.22;;;8.10;98.20;;;;;;5024863;28;20053;-81
2021/03/24 09:00:40;;;;;;;87.57;51.83;;;8.10;98.20;;;;;;5034737;28;20056;-86
2021/03/24 09:03:48;;;;;;;82.43;49.05;;;8.20;98.20;;;;;;5024244;28;20095;-85
2021/03/24 09:06:30;;;;;;;81.97;47.65;;;8.30;97.30;;;;;;5024855;28;20045;-82
2021/03/24 09:09:32;;;;;;;82.15;49.08;;;8.40;97.70;;;;;;5025713;28;20521;-82
2021/03/24 09:12:02;;;;;;;77.47;48.65;;;8.50;97.90;;;;;;5019380;28;20095;-84
2021/03/24 09:14:42;;;;;;;82.45;50.38;;;8.60;97.10;;;;;;5015319;28;20076;-84
2021/03/24 09:17:37;;;;;;;80.95;47.17;;;8.80;97.80;;;;;;5097854;28;20066;-85
2021/03/24 09:20:24;;;;;;;79.28;47.85;;;8.80;96.40;;;;;;5035333;28;20048;-82
2021/03/24 09:23:08;;;;;;;77.45;47.65;;;8.90;96.40;;;;;;5089078;28;20217;-83
2021/03/24 09:25:59;;;;;;;66.43;42.92;;;9.00;95.90;;;;;;5086211;28;20044;-84
2021/03/24 09:28:44;;;;;;;72.40;44.90;;;9.10;95.70;;;;;;5086725;28;20124;-85
2021/03/24 09:31:31;;;;;;;69.95;45.85;;;9.20;96.70;;;;;;5096104;28;20044;-85
2021/03/24 09:33:59;;;;;;;65.82;40.83;;;9.20;95.70;;;;;;5085864;28;20063;-85
2021/03/24 09:36:57;;;;;;;71.45;43.53;;;9.40;95.40;;;;;;5096468;28;20039;-84
2021/03/24 09:39:30;;;;;;;62.83;39.22;;;9.40;95.30;;;;;;5085286;28;20048;-83
2021/03/24 09:42:17;;;;;;;68.40;41.53;;;9.60;95.00;;;;;;5096642;28;20143;-83
2021/03/24 09:45:13;;;;;;;66.45;41.38;;;9.60;94.40;;;;;;5084851;28;20089;-83
2021/03/24 09:48:03;;;;;;;62.53;40.33;;;9.70;94.30;;;;;;5084136;28;20656;-80
2021/03/24 09:50:48;;;;;;;;;;;9.80;93.80;;;;;;5079772;28;20569;-83
2021/03/24 09:53:24;;;;;;;56.75;35.15;;;9.90;93.00;;;;;;5088158;28;19920;-82
2021/03/24 09:56:05;;;;;;;53.90;34.35;;;10.10;93.10;;;;;;5083851;28;20040;-82
2021/03/24 09:59:13;;;;;;;51.58;31.13;;;10.10;92.60;;;;;;5088291;28;20040;-82
2021/03/24 10:02:00;;;;;;;51.17;30.50;;;10.20;92.30;;;;;;5096160;28;20073;-82
2021/03/24 10:04:51;;;;;;;49.42;29.85;;;10.20;91.20;;;;;;5082798;28;20121;-80
2021/03/24 10:07:24;;;;;;;53.47;31.50;;;10.20;91.40;;;;;;5082961;28;20850;-83
2021/03/24 10:10:16;;;;;;;53.88;34.50;;;10.20;91.00;;;;;;5085121;28;20056;-82
2021/03/24 10:12:48;;;;;;;54.47;34.95;;;10.10;91.60;;;;;;5095898;28;20040;-82
2021/03/24 10:15:40;;;;;;;51.13;32.78;;;10.10;92.60;;;;;;5067680;28;20040;-82
2021/03/24 10:18:25;;;;;;;55.08;34.03;;;10.30;92.80;;;;;;5086134;28;20123;-83
2021/03/24 10:20:51;;;;;;;50.33;32.40;;;10.30;91.80;;;;;;5081653;28;20044;-81
2021/03/24 10:23:27;;;;;;;46.03;30.23;;;10.40;91.70;;;;;;5067470;28;20051;-81
2021/03/24 10:26:06;;;;;;;46.05;30.65;;;10.60;90.60;;;;;;5095083;28;20047;-81
2021/03/24 10:28:52;;;;;;;42.17;28.38;;;10.60;90.70;;;;;;5071415;28;20056;-82
2021/03/24 10:31:44;;;;;;;44.83;29.25;;;10.50;90.50;;;;;;5086286;28;20519;-82
2021/03/24 10:34:25;;;;;;;47.55;31.67;;;10.60;90.30;;;;;;5090251;28;20090;-82
2021/03/24 10:37:03;;;;;;;46.20;28.67;;;10.70;90.10;;;;;;5099074;28;20166;-83
2021/03/24 10:39:37;;;;;;;40.90;29.23;;;10.80;91.00;;;;;;5058445;28;20044;-77
2021/03/24 10:42:35;;;;;;;45.88;30.40;;;10.80;90.40;;;;;;5054061;28;20049;-83
2021/03/24 10:45:28;;;;;;;44.05;28.23;;;11.00;89.20;;;;;;5060278;28;20121;-84
2021/03/24 10:48:17;;;;;;;47.70;30.08;;;11.00;89.00;;;;;;5054134;28;20083;-72
2021/03/24 10:50:48;;;;;;;43.78;27.80;;;11.20;89.80;;;;;;5070916;28;20060;-81
2021/03/24 10:53:23;;;;;;;44.83;30.08;;;11.20;89.00;;;;;;5048402;28;20049;-82
2021/03/24 10:56:21;;;;;;;44.30;27.95;;;11.30;89.80;;;;;;5069893;28;20600;-82
2021/03/24 10:58:55;;;;;;;36.80;26.90;;;11.30;90.30;;;;;;5052383;28;20084;-82
2021/03/24 11:01:26;;;;;;;41.97;27.85;;;11.30;87.40;;;;;;5060169;28;20071;-81
2021/03/24 11:03:59;;;;;;;40.88;26.67;;;11.40;88.80;;;;;;5049897;28;20668;-78
2021/03/24 11:06:46;;;;;;;44.45;27.83;;;11.50;87.60;;;;;;5067212;28;20045;-74
2021/03/24 11:09:21;;;;;;;41.53;28.33;;;11.60;85.20;;;;;;5057810;28;20136;-74
2021/03/24 11:12:00;;;;;;;42.17;26.08;;;11.70;87.30;;;;;;5054610;28;20052;-74
2021/03/24 11:14:30;;;;;;;42.92;27.08;;;11.70;84.90;;;;;;5062003;28;20045;-74
2021/03/24 11:17:04;;;;;;;37.88;25.40;;;11.70;84.80;;;;;;5060871;28;20452;-75
2021/03/24 11:19:36;;;;;;;38.13;25.83;;;11.80;87.10;;;;;;5062755;28;20041;-72
2021/03/24 11:22:14;;;;;;;37.20;25.15;;;11.80;85.70;;;;;;5066421;28;20037;-78
2021/03/24 11:24:52;;;;;;;40.63;24.73;;;12.00;85.00;;;;;;5064937;28;20515;-73
2021/03/24 11:27:51;;;;;;;34.35;22.73;;;12.10;82.80;;;;;;5068646;28;20075;-69
2021/03/24 11:30:32;;;;;;;32.75;19.85;;;12.20;83.10;;;;;;5049785;28;20071;-76
2021/03/24 11:33:35;;;;;;;30.10;19.55;;;12.10;82.20;;;;;;5062401;28;20064;-77
2021/03/24 11:36:09;;;;;;;36.00;22.40;;;12.20;78.30;;;;;;5068080;28;20060;-77
2021/03/24 11:38:47;;;;;;;66.90;24.70;;;12.00;83.00;;;;;;5060150;28;20079;-77
2021/03/24 11:41:21;;;;;;;33.47;22.35;;;12.20;83.70;;;;;;5056110;28;20052;-77
2021/03/24 11:44:01;;;;;;;34.08;22.73;;;12.20;81.00;;;;;;5056311;28;20047;-77
2021/03/24 11:46:40;;;;;;;37.00;22.98;;;12.20;80.50;;;;;;5082877;28;20071;-77
2021/03/24 11:49:32;;;;;;;39.42;23.33;;;12.20;81.20;;;;;;5071970;28;20242;-73
2021/03/24 11:52:13;;;;;;;34.33;22.30;;;12.20;83.80;;;;;;5060024;28;20049;-76
2021/03/24 11:55:06;;;;;;;34.47;22.42;;;12.40;81.90;;;;;;5055654;28;20041;-78
2021/03/24 11:57:56;;;;;;;36.95;24.00;;;12.50;81.10;;;;;;5059336;28;20105;-73
2021/03/24 12:00:57;;;;;;;32.53;21.58;;;12.70;82.80;;;;;;5049140;28;20032;-72
2021/03/24 12:03:32;;;;;;;43.72;24.75;;;12.90;80.00;;;;;;5049691;28;20108;-73
2021/03/24 12:06:04;;;;;;;39.05;24.30;;;13.00;80.40;;;;;;5073816;28;20072;-73
2021/03/24 12:08:41;;;;;;;39.03;23.42;;;13.00;83.10;;;;;;5052263;28;20039;-72
2021/03/24 12:11:32;;;;;;;36.88;23.73;;;13.00;80.40;;;;;;5070641;28;20476;-72
2021/03/24 12:14:13;;;;;;;35.72;25.00;;;13.20;81.00;;;;;;5047586;28;20064;-73
2021/03/24 12:16:48;;;;;;;39.00;24.05;;;13.20;82.50;;;;;;5047832;28;20173;-73
2021/03/24 12:19:31;;;;;;;36.28;22.58;;;13.40;80.60;;;;;;5048065;28;20053;-72
2021/03/24 12:22:29;;;;;;;36.67;24.00;;;13.50;82.20;;;;;;5050501;28;20053;-72
2021/03/24 12:25:24;;;;;;;38.60;24.65;;;13.70;80.10;;;;;;5046271;28;20610;-72
2021/03/24 12:28:02;;;;;;;36.35;24.10;;;13.80;77.70;;;;;;5044045;28;20048;-72
2021/03/24 12:30:29;;;;;;;36.72;21.63;;;13.80;78.90;;;;;;5039630;28;20452;-72
2021/03/24 12:33:04;;;;;;;36.08;22.58;;;14.00;78.70;;;;;;5040184;28;20072;-73
2021/03/24 12:35:29;;;;;;;34.88;21.38;;;13.80;74.30;;;;;;5063777;28;20095;-73
2021/03/24 12:38:14;;;;;;;32.85;20.60;;;13.70;76.10;;;;;;5063676;28;20045;-73
2021/03/24 12:41:06;;;;;;;31.05;20.92;;;13.80;75.90;;;;;;5071508;28;20108;-73
2021/03/24 12:43:36;;;;;;;34.97;20.52;;;13.70;73.80;;;;;;5055791;28;20049;-73
2021/03/24 12:46:16;;;;;;;30.30;20.63;;;13.60;73.90;;;;;;5072694;28;20044;-73
2021/03/24 12:48:56;;;;;;;31.98;22.52;;;13.80;76.20;;;;;;5064578;28;20048;-73
2021/03/24 12:51:39;;;;;;;36.95;22.15;;;13.80;73.00;;;;;;5074382;28;20104;-73
2021/03/24 12:54:13;;;;;;;33.40;22.25;;;13.80;74.30;;;;;;5066191;28;20489;-73
2021/03/24 12:56:47;;;;;;;33.05;21.27;;;14.20;73.50;;;;;;5073941;28;20048;-74
2021/03/24 12:59:24;;;;;;;33.88;23.73;;;14.30;71.10;;;;;;5066886;28;20048;-70
2021/03/24 13:02:00;;;;;;;33.90;22.48;;;14.30;72.20;;;;;;5078551;28;20048;-70
2021/03/24 13:04:35;;;;;;;33.28;22.75;;;14.40;72.40;;;;;;5059728;28;20580;-68
2021/03/24 13:07:24;;;;;;;46.95;25.13;;;14.40;73.90;;;;;;5071240;28;20039;-70
2021/03/24 13:10:05;;;;;;;42.37;24.03;;;14.50;74.70;;;;;;5065471;28;20812;-84
2021/03/24 13:12:49;;;;;;;39.67;24.05;;;14.90;73.60;;;;;;5071408;28;20032;-81
2021/03/24 13:15:53;;;;;;;41.63;25.88;;;15.00;70.50;;;;;;5053853;28;20071;-86
2021/03/24 13:18:25;;;;;;;39.72;27.30;;;14.90;71.80;;;;;;5060468;28;20238;-83
2021/03/24 13:21:14;;;;;;;36.90;25.73;;;14.90;71.40;;;;;;5039640;28;20053;-88
2021/03/24 13:24:09;;;;;;;39.67;25.77;;;15.40;73.60;;;;;;5051622;28;20035;-86
2021/03/24 13:26:37;;;;;;;44.10;28.38;;;15.60;70.00;;;;;;5078394;28;20409;-84
2021/03/24 13:29:57;;;;;;;37.13;25.63;;;16.10;68.30;;;;;;5059439;28;20521;-80
2021/03/24 13:32:35;;;;;;;34.75;24.60;;;16.00;68.30;;;;;;4986251;28;20113;-83
2021/03/24 13:35:23;;;;;;;34.65;23.58;;;16.20;65.90;;;;;;4983319;28;20088;-79
2021/03/24 13:37:49;;;;;;;37.20;25.58;;;16.80;64.90;;;;;;4970060;28;20137;-76
2021/03/24 13:40:15;;;;;;;40.35;25.42;;;16.70;62.60;;;;;;4999800;28;20113;-78
2021/03/24 13:42:49;;;;;;;38.33;25.00;;;17.20;62.90;;;;;;4997783;28;20065;-78
2021/03/24 13:45:24;;;;;;;39.22;26.33;;;17.10;64.40;;;;;;5013367;28;20068;-77
2021/03/24 13:47:58;;;;;;;36.92;26.70;;;17.40;61.90;;;;;;5018266;28;20128;-81
2021/03/24 13:50:39;;;;;;;38.20;26.80;;;17.80;61.90;;;;;;5020879;28;20053;-78
2021/03/24 13:53:34;;;;;;;36.08;26.48;;;17.90;58.40;;;;;;5031995;28;20045;-77
2021/03/24 13:56:12;;;;;;;35.92;24.88;;;17.60;58.90;;;;;;5035209;28;20042;-79
2021/03/24 13:59:05;;;;;;;54.28;25.52;;;16.50;61.50;;;;;;5022282;28;20045;-79
2021/03/24 14:01:43;;;;;;;41.40;25.77;;;15.90;66.50;;;;;;5049259;28;20118;-79
2021/03/24 14:04:37;;;;;;;39.38;26.73;;;15.80;65.70;;;;;;5029328;28;20127;-76
2021/03/24 14:07:06;;;;;;;40.40;27.02;;;15.80;66.00;;;;;;5083491;28;20063;-81
2021/03/24 14:09:40;;;;;;;38.08;25.52;;;16.30;65.80;;;;;;5077241;28;20055;-81
2021/03/24 14:12:28;;;;;;;36.05;25.58;;;16.80;65.80;;;;;;5060817;28;20048;-77
2021/03/24 14:15:11;;;;;;;39.13;26.75;;;17.50;64.00;;;;;;5067866;28;20044;-81
2021/03/24 14:17:49;;;;;;;41.70;27.60;;;17.50;59.70;;;;;;5075392;28;20044;-82
2021/03/24 14:20:19;;;;;;;37.53;27.20;;;17.50;60.90;;;;;;5069335;28;20045;-81
2021/03/24 14:23:01;;;;;;;35.22;24.85;;;17.50;60.20;;;;;;5047672;28;20105;-82
2021/03/24 14:25:36;;;;;;;36.90;26.05;;;17.30;60.10;;;;;;5086372;28;20070;-80
2021/03/24 14:28:05;;;;;;;37.97;25.40;;;17.10;61.50;;;;;;5081242;28;20059;-80